createdAt,value
2023-04-14T00:01:18.989Z,3.75
2023-04-14T00:03:48.397Z,3.58
2023-04-14T00:06:17.681Z,3.58
2023-04-14T00:08:48.916Z,3.69
2023-04-14T00:11:18.681Z,3.57
2023-04-14T00:13:47.901Z,3.50
2023-04-14T00:16:22.347Z,3.46
2023-04-14T00:18:52.613Z,3.40
2023-04-14T00:21:27.913Z,3.29
2023-04-14T00:23:59.152Z,3.29
2023-04-14T00:26:39.442Z,3.21
2023-04-14T00:29:08.514Z,3.14
2023-04-14T00:31:37.872Z,3.13
2023-04-14T00:34:12.306Z,3.11
2023-04-14T00:36:41.547Z,2.94
2023-04-14T00:39:12.839Z,2.95
2023-04-14T00:41:43.011Z,2.85
2023-04-14T00:44:12.190Z,2.79
2023-04-14T00:46:47.775Z,2.79
2023-04-14T00:49:18.003Z,2.74
2023-04-14T00:51:48.207Z,2.47
2023-04-14T00:54:20.878Z,2.59
2023-04-14T00:56:52.228Z,2.49
2023-04-14T00:59:21.949Z,2.58
2023-04-14T01:01:51.407Z,2.52
2023-04-14T01:06:58.210Z,2.39
2023-04-14T01:09:29.983Z,2.36
2023-04-14T01:12:08.231Z,2.26
2023-04-14T01:14:44.225Z,2.35
2023-04-14T01:17:21.712Z,2.29
2023-04-14T01:20:09.214Z,2.10
2023-04-14T01:22:45.837Z,2.15
2023-04-14T01:25:58.692Z,2.10
2023-04-14T01:28:51.270Z,2.06
2023-04-14T01:31:31.267Z,2.03
2023-04-14T01:34:05.689Z,1.97
2023-04-14T01:36:41.904Z,1.95
2023-04-14T01:39:14.798Z,1.91
2023-04-14T01:41:49.801Z,1.95
2023-04-14T01:44:22.021Z,1.95
2023-04-14T01:46:54.958Z,1.98
2023-04-14T01:49:30.738Z,1.93
2023-04-14T01:52:00.284Z,1.83
2023-04-14T01:54:33.879Z,1.70
2023-04-14T01:57:04.934Z,1.75
2023-04-14T01:59:41.395Z,1.70
2023-04-14T02:02:17.917Z,1.70
2023-04-14T02:04:48.796Z,1.55
2023-04-14T02:07:27.341Z,1.42
2023-04-14T02:10:00.719Z,1.46
2023-04-14T02:12:33.587Z,1.47
2023-04-14T02:15:04.085Z,1.43
2023-04-14T02:17:36.123Z,1.12
2023-04-14T02:20:13.092Z,1.23
2023-04-14T02:22:43.846Z,1.14
2023-04-14T02:25:19.606Z,1.10
2023-04-14T02:27:55.953Z,0.97
2023-04-14T02:30:34.353Z,1.00
2023-04-14T02:33:09.901Z,0.87
2023-04-14T02:35:44.663Z,0.85
2023-04-14T02:38:20.374Z,0.96
2023-04-14T02:40:50.652Z,0.98
2023-04-14T02:43:22.589Z,1.00
2023-04-14T02:45:55.532Z,1.01
2023-04-14T02:48:30.180Z,1.03
2023-04-14T02:51:02.734Z,0.92
2023-04-14T02:53:34.684Z,0.92
2023-04-14T02:56:28.686Z,0.73
2023-04-14T02:59:00.715Z,0.77
2023-04-14T03:01:32.824Z,0.78
2023-04-14T03:04:04.510Z,0.82
2023-04-14T03:06:38.414Z,0.84
2023-04-14T03:09:08.960Z,0.96
2023-04-14T03:11:40.757Z,0.94
2023-04-14T03:14:11.043Z,0.91
2023-04-14T03:16:42.874Z,1.05
2023-04-14T03:19:15.949Z,1.05
2023-04-14T03:21:49.376Z,1.04
2023-04-14T03:24:24.155Z,1.10
2023-04-14T03:27:03.703Z,0.97
2023-04-14T03:29:38.089Z,0.98
2023-04-14T03:32:08.868Z,1.00
2023-04-14T03:34:46.155Z,1.01
2023-04-14T03:37:26.327Z,0.91
2023-04-14T03:40:05.670Z,0.93
2023-04-14T03:42:42.808Z,0.89
2023-04-14T03:45:13.581Z,0.83
2023-04-14T03:47:45.931Z,0.75
2023-04-14T03:50:21.532Z,0.72
2023-04-14T03:52:56.118Z,0.61
2023-04-14T03:55:27.423Z,0.44
2023-04-14T03:58:03.985Z,0.52
2023-04-14T04:00:35.236Z,0.49
2023-04-14T04:03:10.733Z,0.58
2023-04-14T04:05:43.394Z,0.43
2023-04-14T04:08:21.309Z,0.69
2023-04-14T04:10:58.836Z,0.71
2023-04-14T04:13:29.960Z,0.92
2023-04-14T04:16:00.992Z,0.99
2023-04-14T04:18:33.612Z,1.00
2023-04-14T04:21:19.473Z,1.03
2023-04-14T04:23:55.713Z,1.02
2023-04-14T04:26:27.206Z,0.89
2023-04-14T04:29:08.805Z,1.13
2023-04-14T04:31:38.793Z,1.15
2023-04-14T04:34:09.755Z,1.18
2023-04-14T04:36:43.343Z,1.13
2023-04-14T04:39:12.873Z,0.90
2023-04-14T04:41:45.434Z,1.12
2023-04-14T04:44:14.975Z,0.82
2023-04-14T04:46:54.017Z,0.97
2023-04-14T04:49:30.480Z,0.96
2023-04-14T04:52:11.860Z,1.09
2023-04-14T04:54:41.224Z,1.08
2023-04-14T04:57:12.007Z,1.18
2023-04-14T05:02:21.703Z,1.26
2023-04-14T05:04:51.116Z,1.31
2023-04-14T05:07:22.621Z,1.26
2023-04-14T05:09:51.804Z,1.33
2023-04-14T05:12:20.930Z,1.37
2023-04-14T05:14:50.389Z,1.35
2023-04-14T05:17:19.953Z,1.38
2023-04-14T05:19:49.216Z,1.40
2023-04-14T05:22:18.486Z,1.40
2023-04-14T05:24:53.468Z,1.30
2023-04-14T05:27:23.479Z,1.28
2023-04-14T05:29:53.705Z,1.36
2023-04-14T05:32:33.960Z,1.37
2023-04-14T05:35:04.991Z,1.38
2023-04-14T05:37:39.601Z,1.26
2023-04-14T05:40:12.320Z,1.39
2023-04-14T05:42:42.437Z,1.50
2023-04-14T05:45:12.658Z,1.55
2023-04-14T05:47:42.110Z,1.58
2023-04-14T05:50:17.636Z,1.51
2023-04-14T05:52:52.129Z,1.72
2023-04-14T05:55:23.891Z,1.72
2023-04-14T05:57:53.259Z,1.59
2023-04-14T06:00:24.821Z,1.49
2023-04-14T06:02:54.927Z,1.53
2023-04-14T06:05:30.274Z,1.64
2023-04-14T06:08:00.082Z,1.66
2023-04-14T06:10:40.154Z,1.83
2023-04-14T06:13:11.133Z,1.93
2023-04-14T06:15:48.283Z,2.01
2023-04-14T06:18:17.705Z,1.90
2023-04-14T06:20:47.459Z,2.00
2023-04-14T06:23:16.776Z,1.94
2023-04-14T06:25:49.046Z,2.02
2023-04-14T06:28:18.466Z,1.99
2023-04-14T06:30:47.822Z,2.00
2023-04-14T06:33:17.500Z,2.06
2023-04-14T06:35:46.680Z,2.07
2023-04-14T06:38:22.288Z,2.04
2023-04-14T06:40:53.511Z,2.07
2023-04-14T06:43:22.928Z,2.14
2023-04-14T06:45:52.637Z,2.09
2023-04-14T06:48:27.141Z,2.08
2023-04-14T06:50:57.417Z,1.93
2023-04-14T06:53:26.688Z,2.11
2023-04-14T06:56:01.576Z,2.15
2023-04-14T06:58:36.347Z,2.21
2023-04-14T07:01:06.308Z,2.31
2023-04-14T07:03:35.795Z,2.08
2023-04-14T07:06:06.517Z,2.43
2023-04-14T07:08:36.535Z,2.46
2023-04-14T07:11:10.022Z,2.50
2023-04-14T07:13:41.166Z,2.65
2023-04-14T07:16:15.692Z,2.78
2023-04-14T07:18:44.985Z,2.80
2023-04-14T07:21:14.404Z,2.85
2023-04-14T07:23:44.465Z,2.94
2023-04-14T07:26:15.785Z,2.82
2023-04-14T07:31:27.515Z,2.94
2023-04-14T07:34:02.499Z,3.06
2023-04-14T07:36:33.709Z,3.13
2023-04-14T07:39:03.677Z,3.21
2023-04-14T07:41:34.970Z,3.25
2023-04-14T07:44:04.309Z,3.25
2023-04-14T07:46:33.593Z,3.15
2023-04-14T07:49:09.498Z,3.13
2023-04-14T07:51:38.721Z,3.27
2023-04-14T07:54:08.113Z,3.21
2023-04-14T07:56:39.376Z,3.25
2023-04-14T07:59:13.755Z,3.30
2023-04-14T08:01:48.224Z,3.38
2023-04-14T08:04:24.048Z,3.40
2023-04-14T08:06:53.645Z,3.48
2023-04-14T08:09:23.029Z,3.53
2023-04-14T08:12:00.006Z,3.00
2023-04-14T08:14:29.806Z,3.64
2023-04-14T08:16:59.234Z,3.65
2023-04-14T08:19:30.101Z,3.65
2023-04-14T08:22:04.565Z,3.53
2023-04-14T08:24:39.142Z,3.75
2023-04-14T08:29:45.680Z,3.82
2023-04-14T08:32:15.322Z,3.98
2023-04-14T08:35:41.019Z,3.95
2023-04-14T08:37:34.491Z,3.92
2023-04-14T08:40:09.517Z,4.11
2023-04-14T08:42:40.974Z,4.23
2023-04-14T08:45:11.064Z,4.26
2023-04-14T08:47:47.908Z,4.22
2023-04-14T08:50:20.608Z,3.98
2023-04-14T08:52:54.325Z,4.21
2023-04-14T08:55:24.732Z,4.20
2023-04-14T08:57:56.697Z,4.22
2023-04-14T09:00:26.370Z,4.49
2023-04-14T09:05:33.508Z,4.55
2023-04-14T09:08:08.128Z,4.55
2023-04-14T09:10:37.804Z,4.54
2023-04-14T09:13:11.264Z,4.55
2023-04-14T09:15:40.752Z,4.57
2023-04-14T09:18:11.193Z,4.66
2023-04-14T09:20:41.698Z,4.80
2023-04-14T09:23:11.962Z,4.68
2023-04-14T09:25:47.786Z,4.77
2023-04-14T09:28:19.789Z,4.82
2023-04-14T09:30:57.306Z,4.85
2023-04-14T09:33:27.264Z,4.81
2023-04-14T09:36:20.485Z,5.00
2023-04-14T09:38:51.201Z,5.01
2023-04-14T09:41:26.030Z,5.06
2023-04-14T09:43:57.892Z,5.08
2023-04-14T09:46:32.651Z,5.11
2023-04-14T09:49:03.079Z,5.15
2023-04-14T09:51:37.961Z,5.20
2023-04-14T09:54:07.374Z,5.39
2023-04-14T09:56:37.018Z,5.04
2023-04-14T09:59:13.130Z,5.29
2023-04-14T10:01:47.303Z,5.29
2023-04-14T10:04:26.387Z,5.45
2023-04-14T10:06:58.186Z,5.50
2023-04-14T10:09:37.442Z,5.43
2023-04-14T10:12:11.753Z,5.43
2023-04-14T10:14:48.201Z,5.46
2023-04-14T10:17:19.420Z,5.58
2023-04-14T10:19:53.117Z,5.67
2023-04-14T10:22:27.301Z,5.89
2023-04-14T10:25:02.341Z,5.87
2023-04-14T10:27:34.904Z,5.99
2023-04-14T10:30:08.612Z,5.99
2023-04-14T10:32:40.167Z,5.82
2023-04-14T10:35:18.296Z,5.89
2023-04-14T10:37:53.464Z,5.78
2023-04-14T10:40:23.602Z,5.85
2023-04-14T10:43:16.513Z,6.05
2023-04-14T10:45:59.073Z,5.99
2023-04-14T10:48:29.370Z,5.78
2023-04-14T10:53:55.098Z,6.16
2023-04-14T10:56:40.309Z,6.22
2023-04-14T10:59:30.441Z,6.22
2023-04-14T11:02:02.710Z,6.20
2023-04-14T11:04:32.324Z,6.21
2023-04-14T11:07:16.168Z,6.27
2023-04-14T11:09:46.620Z,6.36
2023-04-14T11:12:32.711Z,6.40
2023-04-14T11:15:09.283Z,6.32
2023-04-14T11:17:42.865Z,6.24
2023-04-14T11:20:23.150Z,6.42
2023-04-14T11:25:33.768Z,6.38
2023-04-14T11:28:09.584Z,6.49
2023-04-14T11:30:39.189Z,6.52
2023-04-14T11:33:10.837Z,6.55
2023-04-14T11:38:29.676Z,6.58
2023-04-14T11:41:29.253Z,6.61
2023-04-14T11:43:58.809Z,6.55
2023-04-14T11:47:02.154Z,6.67
2023-04-14T11:49:38.827Z,6.68
2023-04-14T11:52:14.489Z,6.70
2023-04-14T11:54:44.002Z,6.76
2023-04-14T11:57:14.369Z,6.74
2023-04-14T11:59:44.929Z,6.59
2023-04-14T12:02:19.073Z,6.61
2023-04-14T12:07:29.834Z,6.88
2023-04-14T12:10:18.853Z,6.94
2023-04-14T12:12:48.243Z,6.96
2023-04-14T12:18:02.274Z,6.95
2023-04-14T12:20:49.696Z,6.88
2023-04-14T12:23:19.544Z,6.82
2023-04-14T12:25:56.661Z,6.79
2023-04-14T12:28:34.431Z,6.99
2023-04-14T12:31:10.266Z,6.98
2023-04-14T12:33:40.460Z,7.15
2023-04-14T12:36:18.342Z,7.13
2023-04-14T12:38:54.339Z,7.08
2023-04-14T12:41:24.713Z,7.08
2023-04-14T12:43:54.226Z,7.07
2023-04-14T12:52:10.373Z,6.73
2023-04-14T12:55:07.546Z,6.94
2023-04-14T12:57:37.354Z,6.92
2023-04-14T13:00:08.649Z,7.04
2023-04-14T13:02:39.683Z,7.07
2023-04-14T13:05:09.784Z,7.14
2023-04-14T13:07:41.477Z,7.18
2023-04-14T13:10:12.125Z,7.21
2023-04-14T13:12:47.019Z,7.04
2023-04-14T13:16:12.742Z,7.17
2023-04-14T13:18:18.919Z,7.29
2023-04-14T13:20:55.232Z,7.26
2023-04-14T13:23:26.893Z,7.30
2023-04-14T13:25:56.350Z,7.31
2023-04-14T13:28:26.183Z,7.35
2023-04-14T13:30:57.383Z,7.33
2023-04-14T13:33:27.864Z,7.32
2023-04-14T13:36:10.094Z,7.40
2023-04-14T13:38:41.441Z,7.38
2023-04-14T13:41:10.950Z,7.37
2023-04-14T13:43:45.264Z,7.35
2023-04-14T13:46:19.698Z,7.44
2023-04-14T13:48:49.426Z,7.45
2023-04-14T13:51:32.932Z,7.39
2023-04-14T13:54:09.809Z,7.44
2023-04-14T13:56:39.210Z,7.43
2023-04-14T14:02:18.729Z,7.35
2023-04-14T14:04:48.302Z,7.24
2023-04-14T14:07:30.587Z,7.30
2023-04-14T14:10:25.559Z,7.42
2023-04-14T14:13:09.932Z,7.46
2023-04-14T14:15:39.334Z,7.50
2023-04-14T14:18:08.859Z,7.49
2023-04-14T14:21:11.798Z,7.42
2023-04-14T14:23:41.305Z,7.41
2023-04-14T14:26:28.517Z,7.39
2023-04-14T14:28:57.839Z,7.30
2023-04-14T14:31:42.037Z,7.37
2023-04-14T14:34:22.813Z,7.29
2023-04-14T14:36:52.113Z,7.23
2023-04-14T14:39:21.320Z,7.22
2023-04-14T14:41:58.080Z,7.24
2023-04-14T14:44:27.636Z,7.23
2023-04-14T14:46:56.979Z,7.21
2023-04-14T14:49:26.848Z,7.19
2023-04-14T14:51:56.140Z,7.18
2023-04-14T14:54:25.816Z,7.06
2023-04-14T14:56:57.136Z,7.08
2023-04-14T14:59:26.830Z,7.07
2023-04-14T15:01:56.147Z,7.07
2023-04-14T15:04:30.596Z,7.06
2023-04-14T15:07:00.096Z,6.97
2023-04-14T15:09:29.417Z,6.88
2023-04-14T15:12:19.315Z,6.94
2023-04-14T15:14:48.863Z,6.95
2023-04-14T15:17:18.301Z,6.91
2023-04-14T15:19:52.773Z,6.86
2023-04-14T15:22:23.647Z,6.82
2023-04-14T15:24:58.441Z,6.68
2023-04-14T15:27:35.707Z,6.83
2023-04-14T15:30:05.551Z,6.78
2023-04-14T15:32:34.912Z,6.75
2023-04-14T15:35:04.688Z,6.67
2023-04-14T15:37:39.230Z,6.56
2023-04-14T15:40:24.849Z,6.52
2023-04-14T15:42:56.153Z,6.51
2023-04-14T15:45:25.775Z,6.44
2023-04-14T15:48:19.110Z,6.39
2023-04-14T15:50:48.509Z,6.41
2023-04-14T15:53:17.924Z,6.22
2023-04-14T15:55:56.284Z,6.27
2023-04-14T15:58:32.031Z,6.26
2023-04-14T16:01:01.478Z,6.15
2023-04-14T16:03:45.890Z,6.15
2023-04-14T16:06:15.422Z,6.04
2023-04-14T16:08:59.919Z,5.99
2023-04-14T16:11:30.029Z,5.94
2023-04-14T16:14:01.528Z,5.84
2023-04-14T16:16:30.886Z,5.87
2023-04-14T16:19:00.506Z,5.72
2023-04-14T16:21:49.335Z,5.65
2023-04-14T16:24:32.271Z,5.53
2023-04-14T16:27:14.551Z,5.44
2023-04-14T16:29:46.650Z,5.52
2023-04-14T16:32:17.206Z,5.51
2023-04-14T16:35:11.524Z,5.36
2023-04-14T16:40:19.237Z,5.38
2023-04-14T16:42:48.927Z,5.32
2023-04-14T16:45:39.109Z,4.89
2023-04-14T16:48:08.800Z,5.16
2023-04-14T16:50:53.771Z,4.70
2023-04-14T16:53:29.453Z,5.04
2023-04-14T16:56:05.186Z,5.00
2023-04-14T16:58:35.102Z,4.95
2023-04-14T17:01:08.437Z,4.68
2023-04-14T17:03:43.154Z,4.87
2023-04-14T17:06:12.829Z,4.89
2023-04-14T17:08:42.235Z,4.86
2023-04-14T17:11:11.839Z,4.83
2023-04-14T17:13:43.352Z,4.71
2023-04-14T17:16:14.729Z,4.66
2023-04-14T17:18:51.476Z,4.71
2023-04-14T17:21:21.182Z,4.43
2023-04-14T17:23:50.653Z,4.58
2023-04-14T17:26:20.699Z,4.48
2023-04-14T17:28:49.948Z,4.55
2023-04-14T17:31:21.340Z,4.55
2023-04-14T17:33:51.111Z,4.24
2023-04-14T17:36:20.522Z,4.36
2023-04-14T17:41:52.960Z,4.38
2023-04-14T17:44:32.250Z,4.42
2023-04-14T17:47:12.494Z,4.18
2023-04-14T17:49:49.030Z,4.15
2023-04-14T17:52:21.366Z,3.98
2023-04-14T17:54:52.089Z,4.30
2023-04-14T17:57:21.575Z,4.23
2023-04-14T18:02:43.623Z,4.16
2023-04-14T18:05:13.578Z,4.08
2023-04-14T18:07:44.327Z,4.05
2023-04-14T18:10:13.707Z,3.97
2023-04-14T18:12:42.949Z,3.90
2023-04-14T18:15:15.159Z,3.83
2023-04-14T18:17:53.210Z,3.83
2023-04-14T18:20:25.128Z,3.87
2023-04-14T18:23:08.211Z,3.84
2023-04-14T18:28:15.520Z,3.56
2023-04-14T18:30:49.618Z,3.64
2023-04-14T18:33:21.053Z,3.66
2023-04-14T18:35:52.563Z,3.61
2023-04-14T18:38:22.945Z,3.59
2023-04-14T18:41:07.988Z,3.46
2023-04-14T18:43:38.137Z,3.51
2023-04-14T18:46:27.267Z,3.53
2023-04-14T18:49:04.116Z,3.54
2023-04-14T18:51:41.578Z,3.41
2023-04-14T18:54:12.783Z,3.39
2023-04-14T18:59:33.606Z,3.27
2023-04-14T19:02:21.650Z,3.04
2023-04-14T19:04:53.237Z,2.91
2023-04-14T19:07:22.810Z,3.18
2023-04-14T19:09:52.609Z,3.14
2023-04-14T19:12:28.064Z,3.04
2023-04-14T19:14:58.557Z,3.13
2023-04-14T19:17:47.772Z,2.88
2023-04-14T19:20:19.213Z,2.99
2023-04-14T19:22:48.876Z,2.96
2023-04-14T19:25:18.504Z,2.93
2023-04-14T19:27:52.887Z,2.80
2023-04-14T19:30:26.085Z,2.76
2023-04-14T19:32:55.419Z,2.77
2023-04-14T19:35:27.441Z,2.80
2023-04-14T19:38:01.797Z,2.79
2023-04-14T19:40:31.539Z,2.72
2023-04-14T19:43:08.734Z,2.67
2023-04-14T19:45:51.035Z,2.45
2023-04-14T19:48:33.508Z,2.56
2023-04-14T19:51:06.009Z,2.53
2023-04-14T19:53:40.955Z,2.35
2023-04-14T19:56:10.160Z,2.43
2023-04-14T19:58:44.615Z,2.43
2023-04-14T20:01:13.874Z,2.48
2023-04-14T20:04:05.571Z,2.34
2023-04-14T20:06:41.240Z,2.35
2023-04-14T20:09:10.498Z,2.23
2023-04-14T20:11:45.382Z,2.32
2023-04-14T20:14:20.206Z,2.22
2023-04-14T20:16:49.814Z,2.19
2023-04-14T20:19:18.999Z,2.18
2023-04-14T20:22:13.572Z,2.03
2023-04-14T20:24:42.853Z,2.07
2023-04-14T20:27:18.112Z,2.01
2023-04-14T20:29:47.987Z,2.07
2023-04-14T20:32:17.578Z,2.03
2023-04-14T20:34:47.295Z,1.98
2023-04-14T20:37:22.939Z,1.97
2023-04-14T20:39:57.936Z,1.94
2023-04-14T20:42:27.998Z,1.88
2023-04-14T20:44:57.168Z,1.85
2023-04-14T20:47:26.615Z,1.86
2023-04-14T20:49:56.214Z,1.60
2023-04-14T20:55:03.321Z,1.60
2023-04-14T20:57:33.142Z,1.73
2023-04-14T21:00:04.832Z,1.73
2023-04-14T21:02:39.103Z,1.78
2023-04-14T21:05:09.698Z,1.70
2023-04-14T21:07:41.879Z,1.60
2023-04-14T21:10:12.738Z,1.53
2023-04-14T21:15:30.410Z,1.53
2023-04-14T21:18:12.703Z,1.47
2023-04-14T21:20:43.078Z,1.36
2023-04-14T21:23:16.487Z,1.51
2023-04-14T21:25:46.521Z,1.37
2023-04-14T21:28:16.031Z,1.46
2023-04-14T21:30:45.487Z,1.45
2023-04-14T21:33:14.788Z,1.38
2023-04-14T21:35:44.363Z,1.33
2023-04-14T21:38:25.750Z,1.34
2023-04-14T21:40:55.418Z,1.24
2023-04-14T21:43:24.529Z,1.27
2023-04-14T21:45:53.956Z,1.25
2023-04-14T21:48:23.584Z,1.24
2023-04-14T21:50:52.810Z,1.19
2023-04-14T21:53:29.092Z,1.18
2023-04-14T21:56:09.343Z,1.12
2023-04-14T22:01:15.448Z,1.10
2023-04-14T22:03:45.680Z,1.11
2023-04-14T22:06:20.461Z,0.99
2023-04-14T22:08:51.729Z,0.87
2023-04-14T22:11:21.774Z,0.94
2023-04-14T22:13:55.977Z,0.82
2023-04-14T22:16:30.631Z,0.86
2023-04-14T22:19:00.323Z,0.75
2023-04-14T22:21:30.153Z,0.88
2023-04-14T22:24:06.992Z,0.83
2023-04-14T22:26:36.970Z,0.84
2023-04-14T22:29:06.673Z,0.71
2023-04-14T22:31:36.576Z,0.69
2023-04-14T22:34:06.251Z,0.62
2023-04-14T22:36:35.565Z,0.65
2023-04-14T22:39:07.183Z,0.61
2023-04-14T22:41:36.801Z,0.68
2023-04-14T22:44:06.461Z,0.60
2023-04-14T22:46:35.971Z,0.56
2023-04-14T22:49:05.550Z,0.52
2023-04-14T22:51:34.928Z,0.55
2023-04-14T22:54:04.242Z,0.48
2023-04-14T22:56:36.053Z,0.51
2023-04-14T22:59:10.430Z,0.32
2023-04-14T23:01:39.733Z,0.47
2023-04-14T23:04:09.106Z,0.44
2023-04-14T23:06:38.784Z,0.46
2023-04-14T23:09:08.225Z,0.39
2023-04-14T23:11:44.464Z,0.34
2023-04-14T23:14:20.570Z,0.36
2023-04-14T23:16:50.233Z,0.38
2023-04-14T23:19:19.403Z,0.19
2023-04-14T23:21:50.577Z,0.25
2023-04-14T23:24:25.414Z,0.20
2023-04-14T23:29:32.338Z,0.21
2023-04-14T23:32:01.546Z,0.10
2023-04-14T23:34:36.150Z,0.08
2023-04-14T23:37:06.089Z,0.01
2023-04-14T23:39:35.442Z,0.07
2023-04-14T23:42:06.951Z,-0.02
2023-04-14T23:44:36.847Z,-0.01
2023-04-14T23:49:42.564Z,-0.07
2023-04-14T23:52:16.834Z,-0.06
2023-04-14T23:54:46.187Z,-0.02
2023-04-14T23:57:17.642Z,-0.10
